sensor_id;sensor_type;location;lat;lon;timestamp;temperature;humidity
37052;DHT22;22964;52.272;13.356;2022-10-22T00:00:10;18.80;77.30
37052;DHT22;22964;52.272;13.356;2022-10-22T00:02:37;18.80;77.40
37052;DHT22;22964;52.272;13.356;2022-10-22T00:05:03;18.70;77.30
37052;DHT22;22964;52.272;13.356;2022-10-22T00:07:29;18.70;77.40
37052;DHT22;22964;52.272;13.356;2022-10-22T00:09:55;18.70;77.60
37052;DHT22;22964;52.272;13.356;2022-10-22T00:12:21;18.60;77.60
37052;DHT22;22964;52.272;13.356;2022-10-22T00:14:47;18.60;77.80
37052;DHT22;22964;52.272;13.356;2022-10-22T00:17:13;18.60;77.90
37052;DHT22;22964;52.272;13.356;2022-10-22T00:19:39;18.60;78.00
37052;DHT22;22964;52.272;13.356;2022-10-22T00:22:05;18.60;78.10
37052;DHT22;22964;52.272;13.356;2022-10-22T00:24:32;18.60;78.10
37052;DHT22;22964;52.272;13.356;2022-10-22T00:26:58;18.60;78.20
37052;DHT22;22964;52.272;13.356;2022-10-22T00:29:24;18.60;78.20
37052;DHT22;22964;52.272;13.356;2022-10-22T00:31:50;18.60;78.10
37052;DHT22;22964;52.272;13.356;2022-10-22T00:34:20;18.50;78.00
37052;DHT22;22964;52.272;13.356;2022-10-22T00:36:48;18.60;78.10
37052;DHT22;22964;52.272;13.356;2022-10-22T00:39:15;18.50;78.20
37052;DHT22;22964;52.272;13.356;2022-10-22T00:41:43;18.50;78.20
37052;DHT22;22964;52.272;13.356;2022-10-22T00:47:14;18.50;78.60
37052;DHT22;22964;52.272;13.356;2022-10-22T00:49:41;18.50;78.10
37052;DHT22;22964;52.272;13.356;2022-10-22T00:52:06;18.50;78.10
37052;DHT22;22964;52.272;13.356;2022-10-22T00:54:34;18.40;78.10
37052;DHT22;22964;52.272;13.356;2022-10-22T00:57:00;18.40;78.20
37052;DHT22;22964;52.272;13.356;2022-10-22T00:59:27;18.40;78.30
37052;DHT22;22964;52.272;13.356;2022-10-22T01:01:52;18.40;78.40
37052;DHT22;22964;52.272;13.356;2022-10-22T01:04:19;18.40;78.40
37052;DHT22;22964;52.272;13.356;2022-10-22T01:06:45;18.40;78.40
37052;DHT22;22964;52.272;13.356;2022-10-22T01:09:39;18.30;78.40
37052;DHT22;22964;52.272;13.356;2022-10-22T01:12:22;18.30;79.00
37052;DHT22;22964;52.272;13.356;2022-10-22T01:22:31;18.30;78.50
37052;DHT22;22964;52.272;13.356;2022-10-22T01:25:14;18.20;78.70
37052;DHT22;22964;52.272;13.356;2022-10-22T01:30:12;18.20;78.50
37052;DHT22;22964;52.272;13.356;2022-10-22T01:33:05;18.20;79.20
37052;DHT22;22964;52.272;13.356;2022-10-22T01:35:38;18.20;78.90
37052;DHT22;22964;52.272;13.356;2022-10-22T01:38:07;18.20;78.50
37052;DHT22;22964;52.272;13.356;2022-10-22T01:40:34;18.20;78.30
37052;DHT22;22964;52.272;13.356;2022-10-22T01:43:03;18.20;78.30
37052;DHT22;22964;52.272;13.356;2022-10-22T01:45:33;18.20;78.40
37052;DHT22;22964;52.272;13.356;2022-10-22T01:53:36;18.10;78.50
37052;DHT22;22964;52.272;13.356;2022-10-22T01:56:16;18.10;78.40
37052;DHT22;22964;52.272;13.356;2022-10-22T02:06:38;18.10;78.90
37052;DHT22;22964;52.272;13.356;2022-10-22T02:09:06;18.00;78.80
37052;DHT22;22964;52.272;13.356;2022-10-22T02:11:33;18.00;78.60
37052;DHT22;22964;52.272;13.356;2022-10-22T02:14:01;18.00;78.70
37052;DHT22;22964;52.272;13.356;2022-10-22T02:16:42;18.00;78.90
37052;DHT22;22964;52.272;13.356;2022-10-22T02:19:24;18.00;79.10
37052;DHT22;22964;52.272;13.356;2022-10-22T02:21:51;18.00;79.20
37052;DHT22;22964;52.272;13.356;2022-10-22T02:24:17;18.00;78.90
37052;DHT22;22964;52.272;13.356;2022-10-22T02:27:07;18.00;78.90
37052;DHT22;22964;52.272;13.356;2022-10-22T02:29:45;17.90;79.40
37052;DHT22;22964;52.272;13.356;2022-10-22T02:32:17;18.00;79.20
37052;DHT22;22964;52.272;13.356;2022-10-22T02:34:46;18.00;79.10
37052;DHT22;22964;52.272;13.356;2022-10-22T02:37:14;18.00;79.00
37052;DHT22;22964;52.272;13.356;2022-10-22T02:39:41;18.00;79.00
37052;DHT22;22964;52.272;13.356;2022-10-22T02:42:08;18.00;78.90
37052;DHT22;22964;52.272;13.356;2022-10-22T02:44:34;18.00;79.00
37052;DHT22;22964;52.272;13.356;2022-10-22T02:46:59;18.00;78.90
37052;DHT22;22964;52.272;13.356;2022-10-22T02:49:25;17.90;78.80
37052;DHT22;22964;52.272;13.356;2022-10-22T02:51:51;18.00;78.80
37052;DHT22;22964;52.272;13.356;2022-10-22T02:54:17;17.90;78.80
37052;DHT22;22964;52.272;13.356;2022-10-22T02:56:42;17.90;78.80
37052;DHT22;22964;52.272;13.356;2022-10-22T02:59:08;17.90;78.90
37052;DHT22;22964;52.272;13.356;2022-10-22T03:01:34;17.90;78.90
37052;DHT22;22964;52.272;13.356;2022-10-22T03:03:59;17.90;78.90
37052;DHT22;22964;52.272;13.356;2022-10-22T03:06:25;17.90;79.00
37052;DHT22;22964;52.272;13.356;2022-10-22T03:08:51;17.90;79.00
37052;DHT22;22964;52.272;13.356;2022-10-22T03:11:16;17.90;79.00
37052;DHT22;22964;52.272;13.356;2022-10-22T03:13:42;17.90;79.00
37052;DHT22;22964;52.272;13.356;2022-10-22T03:16:07;17.90;79.00
37052;DHT22;22964;52.272;13.356;2022-10-22T03:18:33;17.90;79.00
37052;DHT22;22964;52.272;13.356;2022-10-22T03:21:29;17.90;79.00
37052;DHT22;22964;52.272;13.356;2022-10-22T03:23:56;17.90;79.40
37052;DHT22;22964;52.272;13.356;2022-10-22T03:26:23;17.90;78.90
37052;DHT22;22964;52.272;13.356;2022-10-22T03:28:49;17.90;78.90
37052;DHT22;22964;52.272;13.356;2022-10-22T03:31:15;17.90;78.90
37052;DHT22;22964;52.272;13.356;2022-10-22T03:33:40;17.90;78.90
37052;DHT22;22964;52.272;13.356;2022-10-22T03:36:07;17.90;78.90
37052;DHT22;22964;52.272;13.356;2022-10-22T03:38:35;17.90;79.00
37052;DHT22;22964;52.272;13.356;2022-10-22T03:41:02;17.90;79.00
37052;DHT22;22964;52.272;13.356;2022-10-22T03:43:27;17.90;79.00
37052;DHT22;22964;52.272;13.356;2022-10-22T03:45:53;17.90;78.90
37052;DHT22;22964;52.272;13.356;2022-10-22T03:48:19;17.90;78.90
37052;DHT22;22964;52.272;13.356;2022-10-22T03:50:44;17.90;78.90
37052;DHT22;22964;52.272;13.356;2022-10-22T03:53:10;17.80;78.90
37052;DHT22;22964;52.272;13.356;2022-10-22T03:55:36;17.80;78.80
37052;DHT22;22964;52.272;13.356;2022-10-22T03:58:04;17.80;78.80
37052;DHT22;22964;52.272;13.356;2022-10-22T04:00:29;17.80;78.80
37052;DHT22;22964;52.272;13.356;2022-10-22T04:02:55;17.80;78.80
37052;DHT22;22964;52.272;13.356;2022-10-22T04:05:22;17.80;78.90
37052;DHT22;22964;52.272;13.356;2022-10-22T04:07:48;17.80;78.90
37052;DHT22;22964;52.272;13.356;2022-10-22T04:10:13;17.80;78.90
37052;DHT22;22964;52.272;13.356;2022-10-22T04:12:39;17.80;78.90
37052;DHT22;22964;52.272;13.356;2022-10-22T04:15:05;17.80;79.00
37052;DHT22;22964;52.272;13.356;2022-10-22T04:17:35;17.70;79.00
37052;DHT22;22964;52.272;13.356;2022-10-22T04:20:02;17.80;79.20
37052;DHT22;22964;52.272;13.356;2022-10-22T04:22:28;17.70;79.00
37052;DHT22;22964;52.272;13.356;2022-10-22T04:24:54;17.70;79.10
37052;DHT22;22964;52.272;13.356;2022-10-22T04:27:20;17.70;79.10
37052;DHT22;22964;52.272;13.356;2022-10-22T04:29:46;17.70;79.10
37052;DHT22;22964;52.272;13.356;2022-10-22T04:32:11;17.70;79.10
37052;DHT22;22964;52.272;13.356;2022-10-22T04:34:37;17.70;79.00
37052;DHT22;22964;52.272;13.356;2022-10-22T04:37:03;17.70;79.10
37052;DHT22;22964;52.272;13.356;2022-10-22T04:39:29;17.70;79.10
37052;DHT22;22964;52.272;13.356;2022-10-22T04:41:55;17.70;79.90
37052;DHT22;22964;52.272;13.356;2022-10-22T04:44:21;17.70;79.10
37052;DHT22;22964;52.272;13.356;2022-10-22T04:46:46;17.70;79.10
37052;DHT22;22964;52.272;13.356;2022-10-22T04:49:12;17.70;79.10
37052;DHT22;22964;52.272;13.356;2022-10-22T04:51:38;17.70;79.10
37052;DHT22;22964;52.272;13.356;2022-10-22T04:54:04;17.60;79.00
37052;DHT22;22964;52.272;13.356;2022-10-22T04:56:31;17.70;79.10
37052;DHT22;22964;52.272;13.356;2022-10-22T04:58:59;17.60;79.10
37052;DHT22;22964;52.272;13.356;2022-10-22T05:01:33;17.60;79.20
37052;DHT22;22964;52.272;13.356;2022-10-22T05:04:02;17.60;79.40
37052;DHT22;22964;52.272;13.356;2022-10-22T05:06:29;17.60;79.10
37052;DHT22;22964;52.272;13.356;2022-10-22T05:08:58;17.60;79.20
37052;DHT22;22964;52.272;13.356;2022-10-22T05:11:33;17.60;79.20
37052;DHT22;22964;52.272;13.356;2022-10-22T05:14:02;17.60;79.40
37052;DHT22;22964;52.272;13.356;2022-10-22T05:16:29;17.60;79.30
37052;DHT22;22964;52.272;13.356;2022-10-22T05:18:57;17.60;79.20
37052;DHT22;22964;52.272;13.356;2022-10-22T05:21:23;17.60;79.30
37052;DHT22;22964;52.272;13.356;2022-10-22T05:23:49;17.60;79.20
37052;DHT22;22964;52.272;13.356;2022-10-22T05:26:17;17.60;79.10
37052;DHT22;22964;52.272;13.356;2022-10-22T05:28:44;17.60;79.20
37052;DHT22;22964;52.272;13.356;2022-10-22T05:31:11;17.60;79.10
37052;DHT22;22964;52.272;13.356;2022-10-22T05:33:38;17.60;79.20
37052;DHT22;22964;52.272;13.356;2022-10-22T05:36:04;17.60;79.10
37052;DHT22;22964;52.272;13.356;2022-10-22T05:38:31;17.60;79.30
37052;DHT22;22964;52.272;13.356;2022-10-22T05:41:05;17.60;79.40
37052;DHT22;22964;52.272;13.356;2022-10-22T05:43:31;17.50;79.40
37052;DHT22;22964;52.272;13.356;2022-10-22T05:46:01;17.60;79.40
37052;DHT22;22964;52.272;13.356;2022-10-22T05:48:28;17.50;79.40
37052;DHT22;22964;52.272;13.356;2022-10-22T05:50:54;17.50;79.40
37052;DHT22;22964;52.272;13.356;2022-10-22T05:53:20;17.50;79.40
37052;DHT22;22964;52.272;13.356;2022-10-22T05:55:46;17.50;80.30
37052;DHT22;22964;52.272;13.356;2022-10-22T05:58:12;17.50;79.50
37052;DHT22;22964;52.272;13.356;2022-10-22T06:00:38;17.50;79.60
37052;DHT22;22964;52.272;13.356;2022-10-22T06:03:04;17.50;79.60
37052;DHT22;22964;52.272;13.356;2022-10-22T06:05:33;17.50;79.70
37052;DHT22;22964;52.272;13.356;2022-10-22T06:07:59;17.50;79.80
37052;DHT22;22964;52.272;13.356;2022-10-22T06:10:25;17.50;79.90
37052;DHT22;22964;52.272;13.356;2022-10-22T06:12:51;17.40;79.70
37052;DHT22;22964;52.272;13.356;2022-10-22T06:15:17;17.40;79.70
37052;DHT22;22964;52.272;13.356;2022-10-22T06:17:43;17.50;79.80
37052;DHT22;22964;52.272;13.356;2022-10-22T06:20:10;17.50;79.70
37052;DHT22;22964;52.272;13.356;2022-10-22T06:22:36;17.50;79.70
37052;DHT22;22964;52.272;13.356;2022-10-22T06:25:03;17.40;80.60
37052;DHT22;22964;52.272;13.356;2022-10-22T06:27:28;17.40;79.70
37052;DHT22;22964;52.272;13.356;2022-10-22T06:29:54;17.40;79.70
37052;DHT22;22964;52.272;13.356;2022-10-22T06:32:20;17.40;79.70
37052;DHT22;22964;52.272;13.356;2022-10-22T06:34:45;17.40;79.70
37052;DHT22;22964;52.272;13.356;2022-10-22T06:37:12;17.40;79.80
37052;DHT22;22964;52.272;13.356;2022-10-22T06:39:40;17.40;79.80
37052;DHT22;22964;52.272;13.356;2022-10-22T06:42:05;17.40;79.80
37052;DHT22;22964;52.272;13.356;2022-10-22T06:44:33;17.40;80.70
37052;DHT22;22964;52.272;13.356;2022-10-22T06:46:59;17.40;79.90
37052;DHT22;22964;52.272;13.356;2022-10-22T06:49:24;17.40;80.00
37052;DHT22;22964;52.272;13.356;2022-10-22T06:51:53;17.40;80.00
37052;DHT22;22964;52.272;13.356;2022-10-22T06:54:20;17.40;81.00
37052;DHT22;22964;52.272;13.356;2022-10-22T06:56:46;17.40;80.20
37052;DHT22;22964;52.272;13.356;2022-10-22T06:59:12;17.40;80.30
37052;DHT22;22964;52.272;13.356;2022-10-22T07:01:38;17.50;80.40
37052;DHT22;22964;52.272;13.356;2022-10-22T07:04:04;17.40;80.40
37052;DHT22;22964;52.272;13.356;2022-10-22T07:06:30;17.50;80.50
37052;DHT22;22964;52.272;13.356;2022-10-22T07:08:57;17.50;80.60
37052;DHT22;22964;52.272;13.356;2022-10-22T07:11:29;17.50;80.60
37052;DHT22;22964;52.272;13.356;2022-10-22T07:13:58;17.50;80.60
37052;DHT22;22964;52.272;13.356;2022-10-22T07:16:24;17.50;80.50
37052;DHT22;22964;52.272;13.356;2022-10-22T07:18:50;17.50;80.50
37052;DHT22;22964;52.272;13.356;2022-10-22T07:21:17;17.50;80.60
37052;DHT22;22964;52.272;13.356;2022-10-22T07:23:43;17.60;81.60
37052;DHT22;22964;52.272;13.356;2022-10-22T07:26:15;17.60;80.70
37052;DHT22;22964;52.272;13.356;2022-10-22T07:28:41;17.60;80.70
37052;DHT22;22964;52.272;13.356;2022-10-22T07:31:08;17.60;81.60
37052;DHT22;22964;52.272;13.356;2022-10-22T07:33:35;17.60;80.90
37052;DHT22;22964;52.272;13.356;2022-10-22T07:36:03;17.70;81.20
37052;DHT22;22964;52.272;13.356;2022-10-22T07:38:29;17.70;81.30
37052;DHT22;22964;52.272;13.356;2022-10-22T07:40:56;17.70;81.40
37052;DHT22;22964;52.272;13.356;2022-10-22T07:43:22;17.80;81.60
37052;DHT22;22964;52.272;13.356;2022-10-22T07:45:48;17.80;81.60
37052;DHT22;22964;52.272;13.356;2022-10-22T07:48:15;17.90;81.60
37052;DHT22;22964;52.272;13.356;2022-10-22T07:50:40;17.90;82.50
37052;DHT22;22964;52.272;13.356;2022-10-22T07:53:06;17.90;81.50
37052;DHT22;22964;52.272;13.356;2022-10-22T07:55:32;17.90;81.40
37052;DHT22;22964;52.272;13.356;2022-10-22T07:57:58;17.90;81.40
37052;DHT22;22964;52.272;13.356;2022-10-22T08:00:24;18.00;81.40
37052;DHT22;22964;52.272;13.356;2022-10-22T08:02:49;18.00;81.30
37052;DHT22;22964;52.272;13.356;2022-10-22T08:05:15;18.00;81.30
37052;DHT22;22964;52.272;13.356;2022-10-22T08:07:41;18.00;81.20
37052;DHT22;22964;52.272;13.356;2022-10-22T08:10:08;18.10;81.40
37052;DHT22;22964;52.272;13.356;2022-10-22T08:12:35;18.10;81.40
37052;DHT22;22964;52.272;13.356;2022-10-22T08:15:00;18.10;81.40
37052;DHT22;22964;52.272;13.356;2022-10-22T08:17:27;18.10;81.40
37052;DHT22;22964;52.272;13.356;2022-10-22T08:19:52;18.20;81.50
37052;DHT22;22964;52.272;13.356;2022-10-22T08:22:18;18.20;81.40
37052;DHT22;22964;52.272;13.356;2022-10-22T08:24:44;18.20;81.30
37052;DHT22;22964;52.272;13.356;2022-10-22T08:27:09;18.20;81.30
37052;DHT22;22964;52.272;13.356;2022-10-22T08:29:35;18.20;81.40
37052;DHT22;22964;52.272;13.356;2022-10-22T08:32:01;18.30;81.40
37052;DHT22;22964;52.272;13.356;2022-10-22T08:34:28;18.30;81.50
37052;DHT22;22964;52.272;13.356;2022-10-22T08:36:54;18.30;81.70
37052;DHT22;22964;52.272;13.356;2022-10-22T08:39:20;18.40;81.80
37052;DHT22;22964;52.272;13.356;2022-10-22T08:49:58;18.50;82.40
37052;DHT22;22964;52.272;13.356;2022-10-22T08:52:25;18.60;82.40
37052;DHT22;22964;52.272;13.356;2022-10-22T08:54:53;18.60;82.30
37052;DHT22;22964;52.272;13.356;2022-10-22T08:58:02;18.60;82.40
37052;DHT22;22964;52.272;13.356;2022-10-22T09:02:59;18.80;82.40
37052;DHT22;22964;52.272;13.356;2022-10-22T09:05:32;18.80;82.90
37052;DHT22;22964;52.272;13.356;2022-10-22T09:07:59;18.90;82.80
37052;DHT22;22964;52.272;13.356;2022-10-22T09:10:34;19.10;82.40
37052;DHT22;22964;52.272;13.356;2022-10-22T09:13:01;19.10;82.60
37052;DHT22;22964;52.272;13.356;2022-10-22T09:15:26;19.20;82.40
37052;DHT22;22964;52.272;13.356;2022-10-22T09:23:11;19.30;82.30
37052;DHT22;22964;52.272;13.356;2022-10-22T09:25:42;19.40;82.10
37052;DHT22;22964;52.272;13.356;2022-10-22T09:28:09;19.50;81.80
37052;DHT22;22964;52.272;13.356;2022-10-22T09:30:37;19.60;81.60
37052;DHT22;22964;52.272;13.356;2022-10-22T09:35:45;19.70;81.40
37052;DHT22;22964;52.272;13.356;2022-10-22T09:38:13;19.70;81.20
37052;DHT22;22964;52.272;13.356;2022-10-22T09:40:45;19.80;81.00
37052;DHT22;22964;52.272;13.356;2022-10-22T09:43:12;19.80;80.80
37052;DHT22;22964;52.272;13.356;2022-10-22T09:45:39;19.90;80.70
37052;DHT22;22964;52.272;13.356;2022-10-22T09:48:35;19.90;80.50
37052;DHT22;22964;52.272;13.356;2022-10-22T09:51:20;19.90;80.20
37052;DHT22;22964;52.272;13.356;2022-10-22T09:53:58;20.00;80.00
37052;DHT22;22964;52.272;13.356;2022-10-22T09:56:28;20.00;79.80
37052;DHT22;22964;52.272;13.356;2022-10-22T09:58:57;20.00;79.80
37052;DHT22;22964;52.272;13.356;2022-10-22T10:01:32;20.10;79.90
37052;DHT22;22964;52.272;13.356;2022-10-22T10:04:07;20.10;79.90
37052;DHT22;22964;52.272;13.356;2022-10-22T10:06:33;20.10;80.00
37052;DHT22;22964;52.272;13.356;2022-10-22T10:09:00;20.20;80.20
37052;DHT22;22964;52.272;13.356;2022-10-22T10:17:41;20.30;80.10
37052;DHT22;22964;52.272;13.356;2022-10-22T10:23:01;20.40;80.00
37052;DHT22;22964;52.272;13.356;2022-10-22T10:25:41;20.40;80.00
37052;DHT22;22964;52.272;13.356;2022-10-22T10:28:14;20.50;79.70
37052;DHT22;22964;52.272;13.356;2022-10-22T10:30:57;20.60;79.60
37052;DHT22;22964;52.272;13.356;2022-10-22T10:38:53;20.70;79.20
37052;DHT22;22964;52.272;13.356;2022-10-22T10:44:22;20.80;78.90
37052;DHT22;22964;52.272;13.356;2022-10-22T10:47:15;20.80;78.80
37052;DHT22;22964;52.272;13.356;2022-10-22T10:49:43;20.80;78.60
37052;DHT22;22964;52.272;13.356;2022-10-22T10:55:12;21.00;79.10
37052;DHT22;22964;52.272;13.356;2022-10-22T10:57:59;21.10;79.20
37052;DHT22;22964;52.272;13.356;2022-10-22T11:00:27;21.20;79.00
37052;DHT22;22964;52.272;13.356;2022-10-22T11:05:57;21.40;77.70
37052;DHT22;22964;52.272;13.356;2022-10-22T11:08:36;21.50;78.10
37052;DHT22;22964;52.272;13.356;2022-10-22T11:11:16;21.60;78.00
37052;DHT22;22964;52.272;13.356;2022-10-22T11:13:48;21.70;78.10
37052;DHT22;22964;52.272;13.356;2022-10-22T11:16:22;21.80;77.90
37052;DHT22;22964;52.272;13.356;2022-10-22T11:18:59;21.90;77.50
37052;DHT22;22964;52.272;13.356;2022-10-22T11:21:50;22.00;76.80
37052;DHT22;22964;52.272;13.356;2022-10-22T11:29:57;22.20;74.80
37052;DHT22;22964;52.272;13.356;2022-10-22T11:32:26;22.20;75.00
37052;DHT22;22964;52.272;13.356;2022-10-22T11:34:55;22.20;74.80
37052;DHT22;22964;52.272;13.356;2022-10-22T11:37:23;22.20;74.50
37052;DHT22;22964;52.272;13.356;2022-10-22T11:39:54;22.20;74.50
37052;DHT22;22964;52.272;13.356;2022-10-22T11:42:31;22.20;74.50
37052;DHT22;22964;52.272;13.356;2022-10-22T11:55:44;22.40;74.80
37052;DHT22;22964;52.272;13.356;2022-10-22T11:58:29;22.50;74.00
37052;DHT22;22964;52.272;13.356;2022-10-22T12:11:38;22.80;71.90
37052;DHT22;22964;52.272;13.356;2022-10-22T12:14:25;22.80;71.80
37052;DHT22;22964;52.272;13.356;2022-10-22T12:16:56;22.80;71.30
37052;DHT22;22964;52.272;13.356;2022-10-22T12:19:29;22.80;72.00
37052;DHT22;22964;52.272;13.356;2022-10-22T12:24:35;22.80;71.40
37052;DHT22;22964;52.272;13.356;2022-10-22T12:27:02;22.80;72.00
37052;DHT22;22964;52.272;13.356;2022-10-22T12:29:30;22.80;72.40
37052;DHT22;22964;52.272;13.356;2022-10-22T12:31:56;22.80;72.10
37052;DHT22;22964;52.272;13.356;2022-10-22T12:34:26;22.80;72.40
37052;DHT22;22964;52.272;13.356;2022-10-22T12:36:54;22.90;72.70
37052;DHT22;22964;52.272;13.356;2022-10-22T12:39:23;23.00;72.30
37052;DHT22;22964;52.272;13.356;2022-10-22T12:41:51;23.10;71.90
37052;DHT22;22964;52.272;13.356;2022-10-22T12:44:18;23.10;71.70
37052;DHT22;22964;52.272;13.356;2022-10-22T12:46:46;23.20;71.60
37052;DHT22;22964;52.272;13.356;2022-10-22T12:49:24;23.30;71.30
37052;DHT22;22964;52.272;13.356;2022-10-22T12:51:52;23.30;70.00
37052;DHT22;22964;52.272;13.356;2022-10-22T12:54:25;23.30;70.70
37052;DHT22;22964;52.272;13.356;2022-10-22T12:56:53;23.30;70.20
37052;DHT22;22964;52.272;13.356;2022-10-22T12:59:21;23.30;70.70
37052;DHT22;22964;52.272;13.356;2022-10-22T13:01:49;23.30;70.70
37052;DHT22;22964;52.272;13.356;2022-10-22T13:06:47;23.30;69.80
37052;DHT22;22964;52.272;13.356;2022-10-22T13:09:23;23.30;68.90
37052;DHT22;22964;52.272;13.356;2022-10-22T13:11:54;23.30;68.20
37052;DHT22;22964;52.272;13.356;2022-10-22T13:14:31;23.30;68.90
37052;DHT22;22964;52.272;13.356;2022-10-22T13:22:34;23.30;69.30
37052;DHT22;22964;52.272;13.356;2022-10-22T13:27:46;23.50;69.70
37052;DHT22;22964;52.272;13.356;2022-10-22T13:30:35;23.60;69.70
37052;DHT22;22964;52.272;13.356;2022-10-22T13:33:19;23.70;68.70
37052;DHT22;22964;52.272;13.356;2022-10-22T13:35:47;23.80;69.10
37052;DHT22;22964;52.272;13.356;2022-10-22T13:38:21;23.90;69.50
37052;DHT22;22964;52.272;13.356;2022-10-22T13:40:48;24.00;68.50
37052;DHT22;22964;52.272;13.356;2022-10-22T13:43:15;24.00;68.70
37052;DHT22;22964;52.272;13.356;2022-10-22T13:45:42;24.10;69.30
37052;DHT22;22964;52.272;13.356;2022-10-22T13:48:12;24.20;68.30
37052;DHT22;22964;52.272;13.356;2022-10-22T13:50:39;24.20;67.00
37052;DHT22;22964;52.272;13.356;2022-10-22T13:53:05;24.20;67.50
37052;DHT22;22964;52.272;13.356;2022-10-22T13:55:32;24.20;67.10
37052;DHT22;22964;52.272;13.356;2022-10-22T13:58:18;24.30;67.10
37052;DHT22;22964;52.272;13.356;2022-10-22T14:00:46;24.20;65.30
37052;DHT22;22964;52.272;13.356;2022-10-22T14:03:15;24.20;66.50
37052;DHT22;22964;52.272;13.356;2022-10-22T14:05:44;24.30;65.90
37052;DHT22;22964;52.272;13.356;2022-10-22T14:08:19;24.20;65.90
37052;DHT22;22964;52.272;13.356;2022-10-22T14:10:46;24.20;65.10
37052;DHT22;22964;52.272;13.356;2022-10-22T14:13:14;24.20;66.10
37052;DHT22;22964;52.272;13.356;2022-10-22T14:15:40;24.20;66.80
37052;DHT22;22964;52.272;13.356;2022-10-22T14:18:07;24.20;65.80
37052;DHT22;22964;52.272;13.356;2022-10-22T14:20:37;24.20;65.60
37052;DHT22;22964;52.272;13.356;2022-10-22T14:23:14;24.20;65.50
37052;DHT22;22964;52.272;13.356;2022-10-22T14:25:42;24.20;64.50
37052;DHT22;22964;52.272;13.356;2022-10-22T14:28:09;24.20;65.30
37052;DHT22;22964;52.272;13.356;2022-10-22T14:30:35;24.10;65.60
37052;DHT22;22964;52.272;13.356;2022-10-22T14:33:01;24.00;65.00
37052;DHT22;22964;52.272;13.356;2022-10-22T14:35:26;24.00;65.10
37052;DHT22;22964;52.272;13.356;2022-10-22T14:37:52;24.00;64.90
37052;DHT22;22964;52.272;13.356;2022-10-22T14:40:19;23.90;64.80
37052;DHT22;22964;52.272;13.356;2022-10-22T14:42:47;23.90;64.70
37052;DHT22;22964;52.272;13.356;2022-10-22T14:45:20;23.80;64.60
37052;DHT22;22964;52.272;13.356;2022-10-22T14:47:46;23.70;64.50
37052;DHT22;22964;52.272;13.356;2022-10-22T14:50:12;23.70;65.10
37052;DHT22;22964;52.272;13.356;2022-10-22T14:52:39;23.60;65.20
37052;DHT22;22964;52.272;13.356;2022-10-22T14:55:08;23.60;65.10
37052;DHT22;22964;52.272;13.356;2022-10-22T14:57:34;23.50;65.10
37052;DHT22;22964;52.272;13.356;2022-10-22T15:00:00;23.50;65.20
37052;DHT22;22964;52.272;13.356;2022-10-22T15:02:25;23.50;65.40
37052;DHT22;22964;52.272;13.356;2022-10-22T15:04:51;23.50;65.50
37052;DHT22;22964;52.272;13.356;2022-10-22T15:07:17;23.40;65.50
37052;DHT22;22964;52.272;13.356;2022-10-22T15:09:43;23.40;65.60
37052;DHT22;22964;52.272;13.356;2022-10-22T15:12:08;23.40;65.70
37052;DHT22;22964;52.272;13.356;2022-10-22T15:14:34;23.30;65.60
37052;DHT22;22964;52.272;13.356;2022-10-22T15:17:00;23.30;65.70
37052;DHT22;22964;52.272;13.356;2022-10-22T15:19:25;23.30;65.70
37052;DHT22;22964;52.272;13.356;2022-10-22T15:21:51;23.20;65.60
37052;DHT22;22964;52.272;13.356;2022-10-22T15:24:17;23.20;65.60
37052;DHT22;22964;52.272;13.356;2022-10-22T15:26:42;23.20;65.70
37052;DHT22;22964;52.272;13.356;2022-10-22T15:29:08;23.20;65.70
37052;DHT22;22964;52.272;13.356;2022-10-22T15:31:53;23.10;65.60
37052;DHT22;22964;52.272;13.356;2022-10-22T15:34:22;23.10;65.20
37052;DHT22;22964;52.272;13.356;2022-10-22T15:36:48;23.00;65.40
37052;DHT22;22964;52.272;13.356;2022-10-22T15:39:14;23.00;65.50
37052;DHT22;22964;52.272;13.356;2022-10-22T15:41:40;23.00;65.60
37052;DHT22;22964;52.272;13.356;2022-10-22T15:44:06;22.90;65.60
37052;DHT22;22964;52.272;13.356;2022-10-22T15:46:33;22.80;65.60
37052;DHT22;22964;52.272;13.356;2022-10-22T15:48:59;22.80;65.60
37052;DHT22;22964;52.272;13.356;2022-10-22T15:51:25;22.70;65.70
37052;DHT22;22964;52.272;13.356;2022-10-22T15:53:53;22.60;65.80
37052;DHT22;22964;52.272;13.356;2022-10-22T15:56:19;22.60;65.80
37052;DHT22;22964;52.272;13.356;2022-10-22T15:58:45;22.50;65.90
37052;DHT22;22964;52.272;13.356;2022-10-22T16:01:12;22.50;65.90
37052;DHT22;22964;52.272;13.356;2022-10-22T16:03:39;22.40;65.90
37052;DHT22;22964;52.272;13.356;2022-10-22T16:06:06;22.30;66.20
37052;DHT22;22964;52.272;13.356;2022-10-22T16:08:32;22.20;66.40
37052;DHT22;22964;52.272;13.356;2022-10-22T16:10:58;22.10;66.40
37052;DHT22;22964;52.272;13.356;2022-10-22T16:13:24;22.00;66.40
37052;DHT22;22964;52.272;13.356;2022-10-22T16:15:51;21.90;66.60
37052;DHT22;22964;52.272;13.356;2022-10-22T16:18:18;21.80;66.50
37052;DHT22;22964;52.272;13.356;2022-10-22T16:20:44;21.70;66.60
37052;DHT22;22964;52.272;13.356;2022-10-22T16:23:09;21.70;66.90
37052;DHT22;22964;52.272;13.356;2022-10-22T16:25:41;21.60;67.10
37052;DHT22;22964;52.272;13.356;2022-10-22T16:28:08;21.50;67.10
37052;DHT22;22964;52.272;13.356;2022-10-22T16:30:35;21.40;67.10
37052;DHT22;22964;52.272;13.356;2022-10-22T16:33:04;21.30;67.20
37052;DHT22;22964;52.272;13.356;2022-10-22T16:35:30;21.20;67.50
37052;DHT22;22964;52.272;13.356;2022-10-22T16:37:56;21.20;67.60
37052;DHT22;22964;52.272;13.356;2022-10-22T16:40:22;21.00;67.50
37052;DHT22;22964;52.272;13.356;2022-10-22T16:42:48;21.00;67.60
37052;DHT22;22964;52.272;13.356;2022-10-22T16:45:14;20.90;67.90
37052;DHT22;22964;52.272;13.356;2022-10-22T16:47:40;20.80;67.90
37052;DHT22;22964;52.272;13.356;2022-10-22T16:50:08;20.80;68.10
37052;DHT22;22964;52.272;13.356;2022-10-22T16:52:34;20.70;68.30
37052;DHT22;22964;52.272;13.356;2022-10-22T16:55:00;20.60;68.40
37052;DHT22;22964;52.272;13.356;2022-10-22T16:57:26;20.50;68.90
37052;DHT22;22964;52.272;13.356;2022-10-22T16:59:53;20.50;69.20
37052;DHT22;22964;52.272;13.356;2022-10-22T17:02:19;20.50;69.50
37052;DHT22;22964;52.272;13.356;2022-10-22T17:04:44;20.40;69.70
37052;DHT22;22964;52.272;13.356;2022-10-22T17:07:10;20.30;70.00
37052;DHT22;22964;52.272;13.356;2022-10-22T17:09:36;20.30;70.30
37052;DHT22;22964;52.272;13.356;2022-10-22T17:12:01;20.20;70.50